createdAt,value
2018-03-12T00:01:57.752Z,8.90
2018-03-12T00:04:25.286Z,8.90
2018-03-12T00:06:52.727Z,8.90
2018-03-12T00:09:20.216Z,8.90
2018-03-12T00:11:47.664Z,8.80
2018-03-12T00:14:15.129Z,8.90
2018-03-12T00:16:44.154Z,8.90
2018-03-12T00:19:11.682Z,8.90
2018-03-12T00:21:39.145Z,8.90
2018-03-12T00:24:06.621Z,8.90
2018-03-12T00:26:34.840Z,8.90
2018-03-12T00:29:02.285Z,8.80
2018-03-12T00:31:29.758Z,8.90
2018-03-12T00:33:57.998Z,8.80
2018-03-12T00:36:25.446Z,8.80
2018-03-12T00:38:54.667Z,8.80
2018-03-12T00:41:22.140Z,8.70
2018-03-12T00:43:49.590Z,8.80
2018-03-12T00:46:17.063Z,8.80
2018-03-12T00:48:44.518Z,8.80
2018-03-12T00:51:11.996Z,8.80
2018-03-12T00:53:39.484Z,8.80
2018-03-12T00:56:07.712Z,8.70
2018-03-12T00:58:35.167Z,8.70
2018-03-12T01:01:03.255Z,8.70
2018-03-12T01:03:30.871Z,8.70
2018-03-12T01:05:58.333Z,8.70
2018-03-12T01:08:25.787Z,8.80
2018-03-12T01:10:53.279Z,8.80
2018-03-12T01:13:20.741Z,8.80
2018-03-12T01:15:48.232Z,8.80
2018-03-12T01:18:15.826Z,8.80
2018-03-12T01:20:43.273Z,8.80
2018-03-12T01:23:10.735Z,8.80
2018-03-12T01:25:38.197Z,8.80
2018-03-12T01:28:05.659Z,8.80
2018-03-12T01:30:33.899Z,8.80
2018-03-12T01:33:01.367Z,8.80
2018-03-12T01:35:28.830Z,8.80
2018-03-12T01:37:56.305Z,8.80
2018-03-12T01:40:23.757Z,8.70
2018-03-12T01:42:52.026Z,8.70
2018-03-12T01:45:19.506Z,8.60
2018-03-12T01:47:46.967Z,8.60
2018-03-12T01:50:14.443Z,8.50
2018-03-12T01:52:53.732Z,8.50
2018-03-12T01:55:21.191Z,8.50
2018-03-12T01:57:48.645Z,8.50
2018-03-12T02:00:16.128Z,8.50
2018-03-12T02:02:44.469Z,8.50
2018-03-12T02:05:11.919Z,8.50
2018-03-12T02:07:39.391Z,8.50
2018-03-12T02:10:06.861Z,8.50
2018-03-12T02:12:34.334Z,8.50
2018-03-12T02:15:01.808Z,8.40
2018-03-12T02:17:29.272Z,8.40
2018-03-12T02:19:57.497Z,8.30
2018-03-12T02:22:24.976Z,8.30
2018-03-12T02:24:52.465Z,8.20
2018-03-12T02:27:21.597Z,8.00
2018-03-12T02:29:49.067Z,8.00
2018-03-12T02:32:16.528Z,8.00
2018-03-12T02:34:44.015Z,7.90
2018-03-12T02:37:11.487Z,7.90
2018-03-12T02:39:39.722Z,7.90
2018-03-12T02:42:07.943Z,7.80
2018-03-12T02:44:37.176Z,7.80
2018-03-12T02:47:04.640Z,7.80
2018-03-12T02:49:32.103Z,7.80
2018-03-12T02:51:59.586Z,7.80
2018-03-12T02:54:27.088Z,7.80
2018-03-12T02:56:54.558Z,7.80
2018-03-12T02:59:22.040Z,7.70
2018-03-12T03:01:49.499Z,7.80
2018-03-12T03:04:16.967Z,7.80
2018-03-12T03:06:44.435Z,7.70
2018-03-12T03:09:11.890Z,7.70
2018-03-12T03:11:39.345Z,7.70
2018-03-12T03:14:06.819Z,7.70
2018-03-12T03:16:35.046Z,7.70
2018-03-12T03:19:03.135Z,7.70
2018-03-12T03:21:30.599Z,7.70
2018-03-12T03:23:58.074Z,7.70
2018-03-12T03:26:25.531Z,7.60
2018-03-12T03:28:53.818Z,7.60
2018-03-12T03:31:22.048Z,7.60
2018-03-12T03:33:50.409Z,7.60
2018-03-12T03:36:17.885Z,7.60
2018-03-12T03:38:45.347Z,7.60
2018-03-12T03:41:12.827Z,7.60
2018-03-12T03:43:40.291Z,7.60
2018-03-12T03:46:08.506Z,7.60
2018-03-12T03:48:35.970Z,7.60
2018-03-12T03:51:04.225Z,7.60
2018-03-12T03:53:31.691Z,7.50
2018-03-12T03:55:59.223Z,7.50
2018-03-12T03:58:26.714Z,7.50
2018-03-12T04:00:54.207Z,7.50
2018-03-12T04:03:21.691Z,7.40
2018-03-12T04:05:49.931Z,7.40
2018-03-12T04:08:17.394Z,7.40
2018-03-12T04:10:44.854Z,7.40
2018-03-12T04:13:12.342Z,7.40
2018-03-12T04:15:40.567Z,7.40
2018-03-12T04:18:08.022Z,7.30
2018-03-12T04:20:35.505Z,7.40
2018-03-12T04:23:03.865Z,7.40
2018-03-12T04:25:31.391Z,7.30
2018-03-12T04:27:58.851Z,7.40
2018-03-12T04:30:26.328Z,7.40
2018-03-12T04:32:53.849Z,7.40
2018-03-12T04:35:21.334Z,7.30
2018-03-12T04:37:48.799Z,7.30
2018-03-12T04:40:16.261Z,7.30
2018-03-12T04:42:44.518Z,7.30
2018-03-12T04:45:12.015Z,7.30
2018-03-12T04:47:39.484Z,7.30
2018-03-12T04:50:07.725Z,7.40
2018-03-12T04:52:35.206Z,7.40
2018-03-12T04:55:02.679Z,7.40
2018-03-12T04:57:30.918Z,7.50
2018-03-12T04:59:58.387Z,7.50
2018-03-12T05:02:25.878Z,7.50
2018-03-12T05:04:53.375Z,7.50
2018-03-12T05:07:20.871Z,7.50
2018-03-12T05:09:48.347Z,7.50
2018-03-12T05:12:16.579Z,7.50
2018-03-12T05:14:44.822Z,7.60
2018-03-12T05:17:12.299Z,7.60
2018-03-12T05:19:39.769Z,7.50
2018-03-12T05:22:07.255Z,7.60
2018-03-12T05:24:35.489Z,7.50
2018-03-12T05:27:03.003Z,7.50
2018-03-12T05:29:30.484Z,7.50
2018-03-12T05:31:57.959Z,7.60
2018-03-12T05:34:26.629Z,7.50
2018-03-12T05:36:54.088Z,7.50
2018-03-12T05:39:21.550Z,7.60
2018-03-12T05:41:49.025Z,7.50
2018-03-12T05:44:16.503Z,7.50
2018-03-12T05:46:43.983Z,7.60
2018-03-12T05:49:12.213Z,7.50
2018-03-12T05:51:41.516Z,7.50
2018-03-12T05:54:08.966Z,7.40
2018-03-12T05:56:36.438Z,7.50
2018-03-12T05:59:04.690Z,7.40
2018-03-12T06:01:32.179Z,7.40
2018-03-12T06:03:59.690Z,7.40
2018-03-12T06:06:27.190Z,7.30
2018-03-12T06:08:55.524Z,7.30
2018-03-12T06:11:23.008Z,7.30
2018-03-12T06:13:50.466Z,7.30
2018-03-12T06:16:17.931Z,7.30
2018-03-12T06:18:45.398Z,7.30
2018-03-12T06:21:12.872Z,7.30
2018-03-12T06:23:41.145Z,7.30
2018-03-12T06:26:09.399Z,7.30
2018-03-12T06:28:36.866Z,7.30
2018-03-12T06:31:04.319Z,7.30
2018-03-12T06:33:31.790Z,7.30
2018-03-12T06:36:00.093Z,7.40
2018-03-12T06:38:28.410Z,7.40
2018-03-12T06:40:56.487Z,7.40
2018-03-12T06:43:23.955Z,7.40
2018-03-12T06:45:51.427Z,7.40
2018-03-12T06:48:19.675Z,7.50
2018-03-12T06:50:49.150Z,7.50
2018-03-12T06:53:16.619Z,7.50
2018-03-12T06:55:44.086Z,7.60
2018-03-12T06:58:11.551Z,7.60
2018-03-12T07:00:39.021Z,7.60
2018-03-12T07:03:06.502Z,7.70
2018-03-12T07:05:34.737Z,7.80
2018-03-12T07:08:02.190Z,7.80
2018-03-12T07:10:29.674Z,7.90
2018-03-12T07:12:57.127Z,7.90
2018-03-12T07:15:24.594Z,7.90
2018-03-12T07:17:52.822Z,8.00
2018-03-12T07:20:20.274Z,8.00
2018-03-12T07:22:47.751Z,8.10
2018-03-12T07:25:15.232Z,8.10
2018-03-12T07:27:44.262Z,8.30
2018-03-12T07:30:11.715Z,8.30
2018-03-12T07:32:39.188Z,8.40
2018-03-12T07:35:06.647Z,8.50
2018-03-12T07:37:34.103Z,8.60
2018-03-12T07:40:01.571Z,8.70
2018-03-12T07:42:29.829Z,8.90
2018-03-12T07:44:57.290Z,8.90
2018-03-12T07:47:24.763Z,8.90
2018-03-12T07:49:52.227Z,9.00
2018-03-12T07:52:19.703Z,9.10
2018-03-12T07:54:47.163Z,9.10
2018-03-12T07:57:14.610Z,9.10
2018-03-12T07:59:42.070Z,9.20
2018-03-12T08:02:09.539Z,9.30
2018-03-12T08:04:36.995Z,9.40
2018-03-12T08:07:05.222Z,9.50
2018-03-12T08:09:32.704Z,9.50
2018-03-12T08:12:00.154Z,9.60
2018-03-12T08:14:27.606Z,9.70
2018-03-12T08:16:55.070Z,9.70
2018-03-12T08:19:23.487Z,9.80
2018-03-12T08:21:51.703Z,10.00
2018-03-12T08:24:19.183Z,10.00
2018-03-12T08:26:46.640Z,10.00
2018-03-12T08:29:14.112Z,10.10
2018-03-12T08:31:41.591Z,10.20
2018-03-12T08:34:09.823Z,10.30
2018-03-12T08:36:37.283Z,10.40
2018-03-12T08:39:04.754Z,10.50
2018-03-12T08:41:32.225Z,10.60
2018-03-12T08:44:00.443Z,10.80
2018-03-12T08:46:27.909Z,10.80
2018-03-12T08:48:55.405Z,10.90
2018-03-12T08:51:23.471Z,11.00
2018-03-12T08:53:51.707Z,11.20
2018-03-12T08:56:19.163Z,11.20
2018-03-12T08:58:46.619Z,11.30
2018-03-12T09:01:14.098Z,11.30
2018-03-12T09:03:41.555Z,11.40
2018-03-12T09:06:09.029Z,11.40
2018-03-12T09:08:36.507Z,11.60
2018-03-12T09:11:04.769Z,11.80
2018-03-12T09:13:32.227Z,11.80
2018-03-12T09:15:59.689Z,11.90
2018-03-12T09:18:27.923Z,12.10
2018-03-12T09:20:55.464Z,12.10
2018-03-12T09:23:22.891Z,12.20
2018-03-12T09:25:51.114Z,12.40
2018-03-12T09:28:18.584Z,12.40
2018-03-12T09:30:46.056Z,12.50
2018-03-12T09:33:14.536Z,12.60
2018-03-12T09:35:42.010Z,12.50
2018-03-12T09:38:09.552Z,12.60
2018-03-12T09:40:37.023Z,12.70
2018-03-12T09:43:05.313Z,13.00
2018-03-12T09:45:32.846Z,12.90
2018-03-12T09:48:00.304Z,13.00
2018-03-12T09:50:27.761Z,13.00
2018-03-12T09:52:56.740Z,13.10
2018-03-12T09:55:24.202Z,13.10
2018-03-12T09:57:51.660Z,13.20
2018-03-12T10:00:19.124Z,13.40
2018-03-12T10:02:46.584Z,13.40
2018-03-12T10:05:15.839Z,13.60
2018-03-12T10:07:43.316Z,13.60
2018-03-12T10:10:10.770Z,13.70
2018-03-12T10:12:38.243Z,13.90
2018-03-12T10:15:05.698Z,13.90
2018-03-12T10:17:33.195Z,13.90
2018-03-12T10:20:00.654Z,13.90
2018-03-12T10:22:28.142Z,14.00
2018-03-12T10:24:55.631Z,14.00
2018-03-12T10:27:23.086Z,14.10
2018-03-12T10:29:50.564Z,14.20
2018-03-12T10:32:18.774Z,14.30
2018-03-12T10:34:46.244Z,14.30
2018-03-12T10:37:13.715Z,14.30
2018-03-12T10:39:41.167Z,14.20
2018-03-12T10:42:08.639Z,14.10
2018-03-12T10:44:36.112Z,14.20
2018-03-12T10:47:04.270Z,14.20
2018-03-12T10:49:31.744Z,14.20
2018-03-12T10:51:59.988Z,14.30
2018-03-12T10:54:28.114Z,14.30
2018-03-12T10:56:55.640Z,14.30
2018-03-12T10:59:23.194Z,14.20
2018-03-12T11:01:56.466Z,14.20
2018-03-12T11:04:23.939Z,14.00
2018-03-12T11:06:57.225Z,13.90
2018-03-12T11:09:25.343Z,14.00
2018-03-12T11:11:52.869Z,14.20
2018-03-12T11:14:20.438Z,14.30
2018-03-12T11:16:49.128Z,14.50
2018-03-12T11:19:17.346Z,14.50
2018-03-12T11:21:44.838Z,14.50
2018-03-12T11:24:13.042Z,14.40
2018-03-12T11:26:40.539Z,14.40
2018-03-12T11:29:07.995Z,14.40
2018-03-12T11:31:35.478Z,14.60
2018-03-12T11:34:03.173Z,14.90
2018-03-12T11:36:31.397Z,15.40
2018-03-12T11:38:58.862Z,15.40
2018-03-12T11:41:26.327Z,15.40
2018-03-12T11:43:53.827Z,15.40
2018-03-12T11:46:22.060Z,15.10
2018-03-12T11:48:49.536Z,15.10
2018-03-12T11:51:17.039Z,14.90
2018-03-12T11:53:44.507Z,14.60
2018-03-12T11:56:11.987Z,14.50
2018-03-12T11:58:39.467Z,14.50
2018-03-12T12:01:06.922Z,14.30
2018-03-12T12:03:34.407Z,14.20
2018-03-12T12:06:01.874Z,14.10
2018-03-12T12:08:29.341Z,14.10
2018-03-12T12:10:56.810Z,14.00
2018-03-12T12:13:24.271Z,13.90
2018-03-12T12:15:51.743Z,13.70
2018-03-12T12:18:19.206Z,13.70
2018-03-12T12:20:47.494Z,13.70
2018-03-12T12:23:15.756Z,13.40
2018-03-12T12:25:43.217Z,13.40
2018-03-12T12:28:10.684Z,13.40
2018-03-12T12:30:38.239Z,13.50
2018-03-12T12:33:05.700Z,13.60
2018-03-12T12:35:33.928Z,13.50
2018-03-12T12:38:01.404Z,13.50
2018-03-12T12:40:28.882Z,13.60
2018-03-12T12:42:56.343Z,13.50
2018-03-12T12:45:24.286Z,13.50
2018-03-12T12:47:51.765Z,13.30
2018-03-12T12:50:19.986Z,13.20
2018-03-12T12:52:47.549Z,13.20
2018-03-12T12:55:15.471Z,13.30
2018-03-12T12:57:43.751Z,13.50
2018-03-12T13:00:11.996Z,13.60
2018-03-12T13:02:39.518Z,13.60
2018-03-12T13:05:06.926Z,13.60
2018-03-12T13:07:34.412Z,13.50
2018-03-12T13:10:02.709Z,13.50
2018-03-12T13:12:30.178Z,13.50
2018-03-12T13:14:57.647Z,13.60
2018-03-12T13:17:25.492Z,13.70
2018-03-12T13:19:52.978Z,13.70
2018-03-12T13:22:20.462Z,13.80
2018-03-12T13:24:47.920Z,13.80
2018-03-12T13:27:15.373Z,13.80
2018-03-12T13:29:42.874Z,13.70
2018-03-12T13:32:11.527Z,13.50
2018-03-12T13:34:39.759Z,13.30
2018-03-12T13:37:07.240Z,13.30
2018-03-12T13:39:34.802Z,13.30
2018-03-12T13:42:03.054Z,13.10
2018-03-12T13:44:30.549Z,13.10
2018-03-12T13:46:58.800Z,13.00
2018-03-12T13:49:26.675Z,13.00
2018-03-12T13:51:54.231Z,13.10
2018-03-12T13:54:21.700Z,13.20
2018-03-12T13:56:49.979Z,13.30
2018-03-12T13:59:17.482Z,13.40
2018-03-12T14:01:44.940Z,13.30
2018-03-12T14:04:12.415Z,13.40
2018-03-12T14:06:39.904Z,13.60
2018-03-12T14:09:07.374Z,13.90
2018-03-12T14:11:35.589Z,14.50
2018-03-12T14:14:03.123Z,14.50
2018-03-12T14:16:30.589Z,14.90
2018-03-12T14:18:58.050Z,15.10
2018-03-12T14:21:25.515Z,15.30
2018-03-12T14:23:52.982Z,15.30
2018-03-12T14:26:20.439Z,15.10
2018-03-12T14:28:47.917Z,15.10
2018-03-12T14:31:15.924Z,15.20
2018-03-12T14:33:43.370Z,14.90
2018-03-12T14:36:11.818Z,14.60
2018-03-12T14:38:40.047Z,14.40
2018-03-12T14:41:07.509Z,14.40
2018-03-12T14:43:34.988Z,14.30
2018-03-12T14:46:02.472Z,14.10
2018-03-12T14:48:29.986Z,14.10
2018-03-12T14:50:57.451Z,14.00
2018-03-12T14:53:24.951Z,13.90
2018-03-12T14:55:52.419Z,13.80
2018-03-12T14:58:20.665Z,14.00
2018-03-12T15:00:48.123Z,14.00
2018-03-12T15:03:15.592Z,14.00
2018-03-12T15:05:43.150Z,13.90
2018-03-12T15:08:11.146Z,13.80
2018-03-12T15:10:39.978Z,13.70
2018-03-12T15:13:07.470Z,13.70
2018-03-12T15:15:35.738Z,13.50
2018-03-12T15:18:04.800Z,13.20
2018-03-12T15:20:32.299Z,13.20
2018-03-12T15:22:59.759Z,13.10
2018-03-12T15:25:27.226Z,12.90
2018-03-12T15:27:55.597Z,12.70
2018-03-12T15:30:23.059Z,12.60
2018-03-12T15:32:51.295Z,12.30
2018-03-12T15:35:18.819Z,12.30
2018-03-12T15:37:46.281Z,12.20
2018-03-12T15:40:13.743Z,12.10
2018-03-12T15:42:41.260Z,11.80
2018-03-12T15:45:09.490Z,11.50
2018-03-12T15:47:36.954Z,11.50
2018-03-12T15:50:04.629Z,11.40
2018-03-12T15:52:32.090Z,11.30
2018-03-12T15:54:59.558Z,11.10
2018-03-12T15:57:27.043Z,11.10
2018-03-12T15:59:54.575Z,11.20
2018-03-12T16:02:22.127Z,11.10
2018-03-12T16:04:49.598Z,11.30
2018-03-12T16:07:17.829Z,11.30
2018-03-12T16:09:45.287Z,11.30
2018-03-12T16:12:12.781Z,11.20
2018-03-12T16:14:41.052Z,11.10
2018-03-12T16:17:08.515Z,11.10
2018-03-12T16:19:35.990Z,11.20
2018-03-12T16:22:04.280Z,11.20
2018-03-12T16:24:31.802Z,11.20
2018-03-12T16:26:59.292Z,11.20
2018-03-12T16:29:26.750Z,11.20
2018-03-12T16:31:54.202Z,11.20
2018-03-12T16:34:23.171Z,11.10
2018-03-12T16:36:51.139Z,11.10
2018-03-12T16:39:18.591Z,11.20
2018-03-12T16:41:46.075Z,11.20
2018-03-12T16:44:13.568Z,11.20
2018-03-12T16:46:41.039Z,11.20
2018-03-12T16:49:08.623Z,11.20
2018-03-12T16:51:36.078Z,11.20
2018-03-12T16:54:03.552Z,11.20
2018-03-12T16:56:31.796Z,11.20
2018-03-12T16:58:59.279Z,11.20
2018-03-12T17:01:27.544Z,11.10
2018-03-12T17:03:55.015Z,11.10
2018-03-12T17:06:23.255Z,11.20
2018-03-12T17:08:50.831Z,11.10
2018-03-12T17:11:18.304Z,11.10
2018-03-12T17:13:46.562Z,11.10
2018-03-12T17:16:14.048Z,11.10
2018-03-12T17:18:42.286Z,11.10
2018-03-12T17:21:09.804Z,11.00
2018-03-12T17:23:37.303Z,11.00
2018-03-12T17:26:04.877Z,11.10
2018-03-12T17:28:32.490Z,11.00
2018-03-12T17:30:59.962Z,11.00
2018-03-12T17:33:27.442Z,11.00
2018-03-12T17:35:55.723Z,10.90
2018-03-12T17:38:23.283Z,10.90
2018-03-12T17:40:50.851Z,10.90
2018-03-12T17:43:18.318Z,10.90
2018-03-12T17:45:46.575Z,10.90
2018-03-12T17:48:14.063Z,10.90
2018-03-12T17:50:41.595Z,10.80
2018-03-12T17:53:09.859Z,10.70
2018-03-12T17:55:37.336Z,10.70
2018-03-12T17:58:05.587Z,10.50
2018-03-12T18:00:33.063Z,10.50
2018-03-12T18:03:01.329Z,10.50
2018-03-12T18:05:28.807Z,10.50
2018-03-12T18:07:57.047Z,10.50
2018-03-12T18:10:24.520Z,10.50
2018-03-12T18:12:52.012Z,10.50
2018-03-12T18:15:19.497Z,10.40
2018-03-12T18:17:46.974Z,10.30
2018-03-12T18:20:15.161Z,10.40
2018-03-12T18:22:42.729Z,10.40
2018-03-12T18:25:10.815Z,10.40
2018-03-12T18:27:39.078Z,10.20
2018-03-12T18:30:06.614Z,10.20
2018-03-12T18:32:34.779Z,10.20
2018-03-12T18:35:02.349Z,10.10
2018-03-12T18:37:29.835Z,10.10
2018-03-12T18:39:58.104Z,10.10
2018-03-12T18:42:25.563Z,10.00
2018-03-12T18:44:54.662Z,10.00
2018-03-12T18:47:22.978Z,10.00
2018-03-12T18:49:50.460Z,9.90
2018-03-12T18:52:17.934Z,9.90
2018-03-12T18:54:45.411Z,10.00
2018-03-12T18:57:13.722Z,10.00
2018-03-12T18:59:41.220Z,9.90
2018-03-12T19:02:08.793Z,9.90
2018-03-12T19:04:36.286Z,9.90
2018-03-12T19:07:03.779Z,9.90
2018-03-12T19:09:31.231Z,9.90
2018-03-12T19:11:58.918Z,9.80
2018-03-12T19:14:26.395Z,9.90
2018-03-12T19:16:54.680Z,9.80
2018-03-12T19:19:22.178Z,9.80
2018-03-12T19:21:49.651Z,9.80
2018-03-12T19:24:17.126Z,9.90
2018-03-12T19:26:45.731Z,9.90
2018-03-12T19:29:13.991Z,9.80
2018-03-12T19:31:41.439Z,9.80
2018-03-12T19:34:08.952Z,9.80
2018-03-12T19:36:36.422Z,9.90
2018-03-12T19:39:03.898Z,9.90
2018-03-12T19:41:33.013Z,9.80
2018-03-12T19:44:00.955Z,9.80
2018-03-12T19:46:28.440Z,9.70
2018-03-12T19:48:56.527Z,9.70
2018-03-12T19:51:24.751Z,9.70
2018-03-12T19:53:52.213Z,9.70
2018-03-12T19:56:19.708Z,9.70
2018-03-12T19:58:47.943Z,9.70
2018-03-12T20:01:15.493Z,9.70
2018-03-12T20:03:42.984Z,9.70
2018-03-12T20:06:10.543Z,9.60
2018-03-12T20:08:38.802Z,9.70
2018-03-12T20:11:06.640Z,9.70
2018-03-12T20:13:34.094Z,9.60
2018-03-12T20:16:12.237Z,9.60
2018-03-12T20:18:40.534Z,9.60
2018-03-12T20:21:08.755Z,9.70
2018-03-12T20:23:36.229Z,9.70
2018-03-12T20:26:03.686Z,9.70
2018-03-12T20:28:31.158Z,9.70
2018-03-12T20:30:58.634Z,9.70
2018-03-12T20:33:26.856Z,9.70
2018-03-12T20:35:54.317Z,9.70
2018-03-12T20:38:21.801Z,9.70
2018-03-12T20:40:49.323Z,9.60
2018-03-12T20:43:16.795Z,9.60
2018-03-12T20:45:44.270Z,9.70
2018-03-12T20:48:11.773Z,9.70
2018-03-12T20:50:40.003Z,9.70
2018-03-12T20:53:07.495Z,9.60
2018-03-12T20:55:35.724Z,9.60
2018-03-12T20:58:03.195Z,9.60
2018-03-12T21:00:30.663Z,9.60
2018-03-12T21:02:58.119Z,9.60
2018-03-12T21:05:25.587Z,9.60
2018-03-12T21:07:54.838Z,9.60
2018-03-12T21:10:22.317Z,9.60
2018-03-12T21:12:49.836Z,9.60
2018-03-12T21:15:17.325Z,9.50
2018-03-12T21:17:45.805Z,9.60
2018-03-12T21:20:13.310Z,9.60
2018-03-12T21:22:41.555Z,9.60
2018-03-12T21:25:09.030Z,9.50
2018-03-12T21:27:37.283Z,9.40
2018-03-12T21:30:04.747Z,9.40
2018-03-12T21:32:32.203Z,9.40
2018-03-12T21:34:59.680Z,9.40
2018-03-12T21:37:27.910Z,9.40
2018-03-12T21:39:55.385Z,9.30
2018-03-12T21:42:22.844Z,9.30
2018-03-12T21:44:50.327Z,9.30
2018-03-12T21:47:18.563Z,9.20
2018-03-12T21:49:46.130Z,9.20
2018-03-12T21:52:14.086Z,9.20
2018-03-12T21:54:41.582Z,9.20
2018-03-12T21:57:09.913Z,9.30
2018-03-12T21:59:37.291Z,9.20
2018-03-12T22:02:04.948Z,9.30
2018-03-12T22:04:32.445Z,9.30
2018-03-12T22:07:00.704Z,9.20
2018-03-12T22:09:28.177Z,9.20
2018-03-12T22:11:56.520Z,9.20
2018-03-12T22:14:23.980Z,9.20
2018-03-12T22:16:51.455Z,9.20
2018-03-12T22:19:19.704Z,9.20
2018-03-12T22:21:47.175Z,9.20
2018-03-12T22:24:14.667Z,9.20
2018-03-12T22:26:42.143Z,9.20
2018-03-12T22:29:09.602Z,9.20
2018-03-12T22:31:37.186Z,9.20
2018-03-12T22:34:05.283Z,9.20
2018-03-12T22:36:33.530Z,9.10
2018-03-12T22:39:00.991Z,9.10
2018-03-12T22:41:28.480Z,9.10
2018-03-12T22:43:56.714Z,9.10
2018-03-12T22:46:24.172Z,9.10
2018-03-12T22:48:51.650Z,9.20
2018-03-12T22:51:19.107Z,9.10
2018-03-12T22:53:46.575Z,9.10
2018-03-12T22:56:14.823Z,9.10
2018-03-12T22:58:42.279Z,9.10
2018-03-12T23:01:09.757Z,9.10
2018-03-12T23:03:37.219Z,9.10
2018-03-12T23:06:06.406Z,9.00
2018-03-12T23:08:33.895Z,9.00
2018-03-12T23:11:01.407Z,9.00
2018-03-12T23:13:28.839Z,9.00
2018-03-12T23:15:56.299Z,9.00
2018-03-12T23:18:23.767Z,9.00
2018-03-12T23:20:51.233Z,9.00
2018-03-12T23:23:18.703Z,9.00
2018-03-12T23:25:46.170Z,9.00
2018-03-12T23:28:15.823Z,9.00
2018-03-12T23:30:43.287Z,9.00
2018-03-12T23:33:10.753Z,9.00
2018-03-12T23:35:38.214Z,8.90
2018-03-12T23:38:05.667Z,8.90
2018-03-12T23:40:33.910Z,9.00
2018-03-12T23:43:01.378Z,9.00
2018-03-12T23:45:28.865Z,8.90
2018-03-12T23:47:56.326Z,9.00
2018-03-12T23:50:23.809Z,8.90
2018-03-12T23:52:52.034Z,8.90
2018-03-12T23:55:19.522Z,8.90
2018-03-12T23:57:46.970Z,8.90
